createdAt,value
2022-10-12T00:00:02.799Z,101289.34
2022-10-12T00:01:16.460Z,101285.81
2022-10-12T00:02:18.287Z,101285.81
2022-10-12T00:03:22.890Z,101286.72
2022-10-12T00:04:24.629Z,101292.00
2022-10-12T00:05:29.669Z,101292.03
2022-10-12T00:06:31.446Z,101289.41
2022-10-12T00:07:36.020Z,101290.28
2022-10-12T00:08:38.778Z,101293.78
2022-10-12T00:09:43.167Z,101290.28
2022-10-12T00:10:44.920Z,101291.13
2022-10-12T00:11:49.284Z,101288.53
2022-10-12T00:12:51.044Z,101292.06
2022-10-12T00:13:55.932Z,101289.44
2022-10-12T00:14:57.805Z,101285.94
2022-10-12T00:16:06.612Z,101285.97
2022-10-12T00:17:08.420Z,101286.94
2022-10-12T00:18:12.765Z,101287.84
2022-10-12T00:19:14.537Z,101289.59
2022-10-12T00:20:18.923Z,101291.38
2022-10-12T00:21:20.838Z,101294.03
2022-10-12T00:22:25.414Z,101296.69
2022-10-12T00:23:27.261Z,101291.41
2022-10-12T00:24:31.652Z,101290.53
2022-10-12T00:25:36.166Z,101290.53
2022-10-12T00:26:40.577Z,101294.97
2022-10-12T00:27:42.411Z,101288.81
2022-10-12T00:28:46.854Z,101292.34
2022-10-12T00:29:48.835Z,101291.44
2022-10-12T00:30:53.301Z,101294.94
2022-10-12T00:31:57.648Z,101288.78
2022-10-12T00:32:59.490Z,101291.44
2022-10-12T00:34:04.393Z,101295.84
2022-10-12T00:35:06.381Z,101297.63
2022-10-12T00:36:16.600Z,101294.97
2022-10-12T00:37:20.939Z,101301.16
2022-10-12T00:38:23.000Z,101293.19
2022-10-12T00:39:27.358Z,101293.19
2022-10-12T00:40:29.108Z,101298.47
2022-10-12T00:41:35.689Z,101291.47
2022-10-12T00:42:37.441Z,101293.22
2022-10-12T00:43:42.389Z,101290.59
2022-10-12T00:44:48.429Z,101295.00
2022-10-12T00:45:52.793Z,101294.13
2022-10-12T00:46:54.578Z,101297.66
2022-10-12T00:47:59.685Z,101291.59
2022-10-12T00:49:01.402Z,101299.50
2022-10-12T00:50:08.820Z,101299.50
2022-10-12T00:51:10.860Z,101299.50
2022-10-12T00:52:15.603Z,101295.06
2022-10-12T00:53:18.212Z,101302.94
2022-10-12T00:54:24.216Z,101297.66
2022-10-12T00:55:26.254Z,101302.94
2022-10-12T00:56:31.028Z,101298.53
2022-10-12T00:57:32.833Z,101302.94
2022-10-12T00:58:37.411Z,101300.31
2022-10-12T00:59:59.179Z,101309.09
2022-10-12T01:01:02.228Z,101304.69
2022-10-12T01:02:06.632Z,101311.72
2022-10-12T01:03:11.457Z,101310.84
2022-10-12T01:04:13.213Z,101311.72
2022-10-12T01:05:17.661Z,101310.84
2022-10-12T01:06:19.444Z,101305.56
2022-10-12T01:07:23.858Z,101311.72
2022-10-12T01:08:25.726Z,101297.63
2022-10-12T01:09:30.816Z,101314.34
2022-10-12T01:10:33.233Z,101308.19
2022-10-12T01:11:37.593Z,101309.03
2022-10-12T01:12:40.176Z,101313.47
2022-10-12T01:13:44.576Z,101308.19
2022-10-12T01:14:46.353Z,101313.47
2022-10-12T01:16:17.015Z,101311.72
2022-10-12T01:17:21.613Z,101306.47
2022-10-12T01:18:28.179Z,101311.72
2022-10-12T01:19:32.594Z,101307.31
2022-10-12T01:20:55.373Z,101313.47
2022-10-12T01:22:01.564Z,101304.63
2022-10-12T01:23:21.016Z,101309.91
2022-10-12T01:24:39.008Z,101311.66
2022-10-12T01:25:45.966Z,101309.00
2022-10-12T01:26:56.839Z,101312.50
2022-10-12T01:28:13.526Z,101306.31
2022-10-12T01:29:30.629Z,101311.59
2022-10-12T01:30:41.304Z,101306.31
2022-10-12T01:32:18.544Z,101302.78
2022-10-12T01:33:35.227Z,101304.56
2022-10-12T01:34:39.555Z,101309.84
2022-10-12T01:35:43.915Z,101306.31
2022-10-12T01:36:46.453Z,101307.22
2022-10-12T01:38:11.039Z,101308.09
2022-10-12T01:39:17.047Z,101309.00
2022-10-12T01:40:30.110Z,101302.84
2022-10-12T01:41:43.992Z,101309.88
2022-10-12T01:42:48.397Z,101311.66
2022-10-12T01:43:50.630Z,101320.47
2022-10-12T01:45:03.526Z,101315.22
2022-10-12T01:46:08.508Z,101317.00
2022-10-12T01:47:12.870Z,101313.50
2022-10-12T01:48:14.676Z,101318.78
2022-10-12T01:49:20.356Z,101311.78
2022-10-12T01:50:25.851Z,101313.50
2022-10-12T01:51:27.686Z,101310.06
2022-10-12T01:52:38.597Z,101320.63
2022-10-12T01:53:59.890Z,101317.06
2022-10-12T01:55:10.433Z,101322.41
2022-10-12T01:56:16.744Z,101313.59
2022-10-12T01:57:21.126Z,101321.53
2022-10-12T01:58:26.927Z,101320.66
2022-10-12T01:59:34.129Z,101317.13
2022-10-12T02:00:43.053Z,101323.31
2022-10-12T02:01:50.254Z,101313.63
2022-10-12T02:02:58.078Z,101318.03
2022-10-12T02:04:12.238Z,101320.69
2022-10-12T02:05:32.348Z,101316.28
2022-10-12T02:06:43.696Z,101319.88
2022-10-12T02:07:50.246Z,101326.91
2022-10-12T02:08:59.301Z,101322.53
2022-10-12T02:10:01.147Z,101321.69
2022-10-12T02:11:14.969Z,101323.44
2022-10-12T02:12:17.462Z,101331.44
2022-10-12T02:13:22.300Z,101329.69
2022-10-12T02:14:26.385Z,101327.06
2022-10-12T02:15:31.630Z,101333.22
2022-10-12T02:16:34.571Z,101339.41
2022-10-12T02:17:39.220Z,101335.91
2022-10-12T02:18:43.373Z,101340.31
2022-10-12T02:19:48.493Z,101331.53
2022-10-12T02:20:51.597Z,101340.34
2022-10-12T02:21:57.370Z,101334.22
2022-10-12T02:22:59.194Z,101325.44
2022-10-12T02:24:04.529Z,101329.84
2022-10-12T02:25:07.174Z,101322.81
2022-10-12T02:26:11.637Z,101332.50
2022-10-12T02:27:14.067Z,101329.03
2022-10-12T02:28:19.060Z,101326.41
2022-10-12T02:29:22.375Z,101328.19
2022-10-12T02:30:26.732Z,101329.94
2022-10-12T02:31:32.910Z,101325.56
2022-10-12T02:32:41.442Z,101324.66
2022-10-12T02:33:43.970Z,101329.94
2022-10-12T02:34:58.753Z,101323.78
2022-10-12T02:36:05.837Z,101337.88
2022-10-12T02:37:15.338Z,101335.25
2022-10-12T02:38:20.708Z,101333.47
2022-10-12T02:39:32.050Z,101332.59
2022-10-12T02:40:48.438Z,101337.00
2022-10-12T02:41:53.171Z,101335.25
2022-10-12T02:43:09.990Z,101331.72
2022-10-12T02:44:15.469Z,101337.91
2022-10-12T02:45:17.279Z,101335.25
2022-10-12T02:46:21.717Z,101345.81
2022-10-12T02:47:23.789Z,101332.59
2022-10-12T02:48:28.153Z,101337.88
2022-10-12T02:49:29.955Z,101337.00
2022-10-12T02:50:34.319Z,101344.94
2022-10-12T02:51:36.122Z,101337.03
2022-10-12T02:52:40.499Z,101344.06
2022-10-12T02:53:42.259Z,101342.34
2022-10-12T02:54:46.760Z,101345.88
2022-10-12T02:55:52.441Z,101341.47
2022-10-12T02:56:56.829Z,101336.22
2022-10-12T02:57:58.573Z,101339.72
2022-10-12T02:59:03.026Z,101338.84
2022-10-12T03:00:05.099Z,101337.09
2022-10-12T03:01:09.522Z,101333.56
2022-10-12T03:02:11.480Z,101333.56
2022-10-12T03:03:16.109Z,101335.31
2022-10-12T03:04:17.863Z,101334.41
2022-10-12T03:05:22.203Z,101330.03
2022-10-12T03:06:24.207Z,101326.50
2022-10-12T03:07:28.605Z,101329.13
2022-10-12T03:08:30.389Z,101323.84
2022-10-12T03:09:34.757Z,101322.03
2022-10-12T03:10:36.531Z,101321.16
2022-10-12T03:11:43.892Z,101328.19
2022-10-12T03:12:50.057Z,101317.63
2022-10-12T03:13:55.278Z,101321.16
2022-10-12T03:14:57.029Z,101322.03
2022-10-12T03:16:05.814Z,101328.19
2022-10-12T03:17:07.567Z,101321.16
2022-10-12T03:18:11.973Z,101324.72
2022-10-12T03:19:13.793Z,101321.19
2022-10-12T03:20:18.247Z,101315.06
2022-10-12T03:21:20.135Z,101318.56
2022-10-12T03:22:24.503Z,101324.72
2022-10-12T03:23:26.426Z,101315.03
2022-10-12T03:24:30.848Z,101326.44
2022-10-12T03:25:33.299Z,101320.28
2022-10-12T03:26:37.667Z,101319.38
2022-10-12T03:27:40.016Z,101319.38
2022-10-12T03:28:44.884Z,101317.56
2022-10-12T03:29:46.700Z,101323.66
2022-10-12T03:30:51.118Z,101317.50
2022-10-12T03:31:52.870Z,101315.72
2022-10-12T03:32:57.268Z,101320.97
2022-10-12T03:33:59.082Z,101319.25
2022-10-12T03:35:03.452Z,101324.53
2022-10-12T03:36:05.879Z,101320.13
2022-10-12T03:37:10.231Z,101323.66
2022-10-12T03:38:12.420Z,101321.03
2022-10-12T03:39:16.828Z,101326.31
2022-10-12T03:40:18.601Z,101319.28
2022-10-12T03:41:23.042Z,101314.00
2022-10-12T03:42:24.782Z,101326.31
2022-10-12T03:43:29.162Z,101321.06
2022-10-12T03:44:31.013Z,101318.47
2022-10-12T03:45:35.732Z,101319.31
2022-10-12T03:46:37.507Z,101321.13
2022-10-12T03:47:41.947Z,101329.94
2022-10-12T03:48:43.721Z,101314.25
2022-10-12T03:49:48.080Z,101324.72
2022-10-12T03:50:50.307Z,101324.72
2022-10-12T03:51:54.647Z,101320.31
2022-10-12T03:52:56.437Z,101316.81
2022-10-12T03:54:00.877Z,101325.59
2022-10-12T03:55:02.638Z,101330.03
2022-10-12T03:56:07.143Z,101333.56
2022-10-12T03:57:08.977Z,101317.06
2022-10-12T03:58:13.453Z,101333.63
2022-10-12T03:59:15.237Z,101331.91
2022-10-12T04:00:19.708Z,101338.03
2022-10-12T04:01:21.514Z,101333.72
2022-10-12T04:02:25.920Z,101338.97
2022-10-12T04:03:27.852Z,101342.50
2022-10-12T04:04:32.215Z,101331.03
2022-10-12T04:05:34.042Z,101330.16
2022-10-12T04:06:38.457Z,101332.72
2022-10-12T04:07:40.537Z,101327.41
2022-10-12T04:08:50.516Z,101330.03
2022-10-12T04:09:52.722Z,101330.03
2022-10-12T04:10:57.518Z,101324.72
2022-10-12T04:12:02.025Z,101329.97
2022-10-12T04:13:04.167Z,101324.69
2022-10-12T04:14:08.601Z,101324.72
2022-10-12T04:15:10.600Z,101324.72
2022-10-12T04:16:14.977Z,101317.63
2022-10-12T04:17:16.878Z,101315.88
2022-10-12T04:18:21.297Z,101319.44
2022-10-12T04:19:23.033Z,101321.16
2022-10-12T04:20:28.280Z,101322.94
2022-10-12T04:21:33.017Z,101319.44
2022-10-12T04:22:35.057Z,101316.78
2022-10-12T04:23:39.865Z,101322.97
2022-10-12T04:24:41.664Z,101327.34
2022-10-12T04:25:46.165Z,101325.59
2022-10-12T04:26:47.959Z,101334.41
2022-10-12T04:27:52.412Z,101314.19
2022-10-12T04:28:54.280Z,101321.28
2022-10-12T04:29:58.704Z,101323.00
2022-10-12T04:31:00.535Z,101325.66
2022-10-12T04:32:07.751Z,101326.63
2022-10-12T04:33:13.334Z,101328.28
2022-10-12T04:34:17.682Z,101326.56
2022-10-12T04:35:19.578Z,101330.03
2022-10-12T04:36:23.953Z,101327.41
2022-10-12T04:37:26.881Z,101333.53
2022-10-12T04:38:31.276Z,101326.50
2022-10-12T04:39:33.049Z,101329.97
2022-10-12T04:40:37.424Z,101326.44
2022-10-12T04:41:39.762Z,101326.44
2022-10-12T04:42:44.177Z,101336.09
2022-10-12T04:43:45.957Z,101330.81
2022-10-12T04:44:50.369Z,101327.28
2022-10-12T04:45:56.173Z,101324.66
2022-10-12T04:47:00.527Z,101329.94
2022-10-12T04:48:02.467Z,101329.88
2022-10-12T04:49:06.885Z,101323.69
2022-10-12T04:50:10.065Z,101328.94
2022-10-12T04:51:14.444Z,101328.94
2022-10-12T04:52:16.360Z,101329.81
2022-10-12T04:53:20.741Z,101326.31
2022-10-12T04:54:23.282Z,101332.44
2022-10-12T04:55:27.620Z,101314.16
2022-10-12T04:56:29.370Z,101342.09
2022-10-12T04:57:33.757Z,101331.53
2022-10-12T04:58:35.537Z,101331.47
2022-10-12T04:59:40.018Z,101338.50
2022-10-12T05:00:41.905Z,101339.41
2022-10-12T05:01:46.488Z,101344.69
2022-10-12T05:02:48.336Z,101348.22
2022-10-12T05:03:52.747Z,101350.03
2022-10-12T05:04:54.590Z,101351.81
2022-10-12T05:05:58.944Z,101353.56
2022-10-12T05:07:00.710Z,101350.97
2022-10-12T05:08:05.568Z,101354.50
2022-10-12T05:09:07.386Z,101354.50
2022-10-12T05:10:11.985Z,101351.84
2022-10-12T05:11:13.875Z,101353.63
2022-10-12T05:12:18.328Z,101351.84
2022-10-12T05:13:20.101Z,101356.25
2022-10-12T05:14:24.468Z,101358.00
2022-10-12T05:15:26.383Z,101360.63
2022-10-12T05:16:30.762Z,101359.72
2022-10-12T05:17:32.571Z,101352.66
2022-10-12T05:18:36.984Z,101361.41
2022-10-12T05:19:38.836Z,101354.34
2022-10-12T05:20:43.204Z,101365.75
2022-10-12T05:21:44.967Z,101361.28
2022-10-12T05:22:49.487Z,101355.97
2022-10-12T05:23:51.681Z,101355.22
2022-10-12T05:24:56.017Z,101363.78
2022-10-12T05:25:57.844Z,101366.41
2022-10-12T05:27:03.129Z,101364.56
2022-10-12T05:28:05.149Z,101365.41
2022-10-12T05:29:09.679Z,101371.50
2022-10-12T05:30:11.699Z,101368.81
2022-10-12T05:31:16.077Z,101368.75
2022-10-12T05:32:22.103Z,101374.84
2022-10-12T05:33:26.541Z,101372.16
2022-10-12T05:34:28.322Z,101373.84
2022-10-12T05:35:32.711Z,101374.63
2022-10-12T05:36:34.547Z,101375.47
2022-10-12T05:37:39.351Z,101370.16
2022-10-12T05:38:41.355Z,101370.00
2022-10-12T05:39:46.027Z,101369.94
2022-10-12T05:40:47.790Z,101374.25
2022-10-12T05:41:54.328Z,101373.31
2022-10-12T05:42:56.152Z,101373.22
2022-10-12T05:44:00.503Z,101370.47
2022-10-12T05:45:05.042Z,101372.19
2022-10-12T05:46:09.030Z,101373.84
2022-10-12T05:47:15.473Z,101370.22
2022-10-12T05:48:17.262Z,101368.38
2022-10-12T05:49:21.667Z,101375.31
2022-10-12T05:50:23.427Z,101366.59
2022-10-12T05:51:29.019Z,101373.38
2022-10-12T05:52:31.084Z,101372.34
2022-10-12T05:53:35.608Z,101374.91
2022-10-12T05:54:37.394Z,101376.53
2022-10-12T05:55:41.816Z,101374.69
2022-10-12T05:56:43.686Z,101378.09
2022-10-12T05:57:51.955Z,101379.72
2022-10-12T05:58:53.904Z,101383.16
2022-10-12T05:59:58.413Z,101374.25
2022-10-12T06:01:12.934Z,101371.47
2022-10-12T06:02:15.415Z,101371.34
2022-10-12T06:03:22.992Z,101372.09
2022-10-12T06:04:30.246Z,101368.47
2022-10-12T06:05:32.051Z,101373.59
2022-10-12T06:06:36.491Z,101365.53
2022-10-12T06:07:38.291Z,101368.03
2022-10-12T06:08:42.903Z,101371.47
2022-10-12T06:09:44.912Z,101364.28
2022-10-12T06:10:49.629Z,101372.03
2022-10-12T06:11:51.410Z,101362.19
2022-10-12T06:12:55.776Z,101365.59
2022-10-12T06:13:57.590Z,101361.94
2022-10-12T06:15:02.078Z,101367.97
2022-10-12T06:16:05.801Z,101365.13
2022-10-12T06:17:10.239Z,101367.69
2022-10-12T06:18:12.358Z,101369.31
2022-10-12T06:19:16.820Z,101367.41
2022-10-12T06:20:18.579Z,101369.91
2022-10-12T06:21:38.208Z,101375.00
2022-10-12T06:22:42.673Z,101367.69
2022-10-12T06:23:44.454Z,101372.84
2022-10-12T06:24:48.938Z,101364.72
2022-10-12T06:25:51.586Z,101372.47
2022-10-12T06:26:56.015Z,101368.72
2022-10-12T06:27:57.853Z,101361.50
2022-10-12T06:29:03.069Z,101363.03
2022-10-12T06:30:05.238Z,101368.91
2022-10-12T06:31:10.606Z,101370.47
2022-10-12T06:32:12.429Z,101371.13
2022-10-12T06:33:16.855Z,101372.69
2022-10-12T06:34:18.720Z,101367.16
2022-10-12T06:35:23.133Z,101368.72
2022-10-12T06:36:24.934Z,101378.16
2022-10-12T06:37:49.079Z,101366.44
2022-10-12T06:38:55.296Z,101371.47
2022-10-12T06:39:59.766Z,101372.13
2022-10-12T06:41:01.693Z,101368.41
2022-10-12T06:42:07.518Z,101372.56
2022-10-12T06:43:10.092Z,101372.38
2022-10-12T06:44:14.809Z,101369.44
2022-10-12T06:45:16.849Z,101370.94
2022-10-12T06:46:21.300Z,101371.63
2022-10-12T06:47:23.101Z,101382.00
2022-10-12T06:48:27.497Z,101380.06
2022-10-12T06:49:29.300Z,101375.56
2022-10-12T06:50:33.775Z,101376.25
2022-10-12T06:51:35.676Z,101383.22
2022-10-12T06:52:40.492Z,101380.41
2022-10-12T06:53:42.466Z,101382.03
2022-10-12T06:54:46.864Z,101389.81
2022-10-12T06:55:48.614Z,101391.31
2022-10-12T06:56:57.894Z,101384.03
2022-10-12T06:58:00.511Z,101392.69
2022-10-12T06:59:04.962Z,101388.97
2022-10-12T07:00:07.391Z,101386.16
2022-10-12T07:01:11.906Z,101394.81
2022-10-12T07:02:13.830Z,101395.53
2022-10-12T07:03:20.447Z,101393.69
2022-10-12T07:04:24.826Z,101397.00
2022-10-12T07:05:27.307Z,101409.28
2022-10-12T07:06:31.734Z,101405.59
2022-10-12T07:07:34.068Z,101406.25
2022-10-12T07:08:38.509Z,101412.28
2022-10-12T07:09:43.013Z,101413.88
2022-10-12T07:10:44.865Z,101418.09
2022-10-12T07:11:49.233Z,101414.41
2022-10-12T07:12:51.060Z,101427.47
2022-10-12T07:13:55.530Z,101429.09
2022-10-12T07:14:58.465Z,101433.28
2022-10-12T07:16:02.824Z,101433.91
2022-10-12T07:17:04.589Z,101431.97
2022-10-12T07:18:08.957Z,101437.00
2022-10-12T07:19:13.374Z,101438.53
2022-10-12T07:20:15.160Z,101440.00
2022-10-12T07:21:19.694Z,101437.81
2022-10-12T07:22:21.550Z,101440.88
2022-10-12T07:23:25.917Z,101441.31
2022-10-12T07:24:35.732Z,101436.25
2022-10-12T07:25:40.108Z,101444.38
2022-10-12T07:26:44.489Z,101456.16
2022-10-12T07:27:49.088Z,101448.53
2022-10-12T07:28:53.615Z,101453.25
2022-10-12T07:29:55.482Z,101462.78
2022-10-12T07:31:06.914Z,101463.44
2022-10-12T07:32:08.752Z,101470.38
2022-10-12T07:33:13.132Z,101466.59
2022-10-12T07:34:14.934Z,101479.75
2022-10-12T07:36:58.615Z,101491.59
2022-10-12T07:38:02.767Z,101498.31
2022-10-12T07:39:07.145Z,101491.78
2022-10-12T07:40:21.621Z,101503.75
2022-10-12T07:41:23.430Z,101505.31
2022-10-12T07:42:27.992Z,101512.41
2022-10-12T07:43:29.996Z,101515.16
2022-10-12T07:44:34.516Z,101518.78
2022-10-12T07:45:36.362Z,101529.72
2022-10-12T07:46:40.839Z,101519.25
2022-10-12T07:47:42.719Z,101526.63
2022-10-12T07:48:50.206Z,101528.50
2022-10-12T07:49:52.350Z,101531.28
2022-10-12T07:50:57.356Z,101526.13
2022-10-12T07:51:59.313Z,101528.91
2022-10-12T07:53:03.707Z,101526.44
2022-10-12T07:54:08.142Z,101531.91
2022-10-12T07:55:10.098Z,101528.38
2022-10-12T07:56:15.948Z,101537.34
2022-10-12T07:57:20.441Z,101542.69
2022-10-12T07:58:22.251Z,101531.91
2022-10-12T07:59:26.681Z,101524.78
2022-10-12T08:00:31.953Z,101531.78
2022-10-12T08:01:36.444Z,101532.53
2022-10-12T08:02:40.886Z,101533.31
2022-10-12T08:03:45.302Z,101526.13
2022-10-12T08:04:47.053Z,101535.75
2022-10-12T08:05:51.402Z,101534.75
2022-10-12T08:06:55.897Z,101534.63
2022-10-12T08:08:00.351Z,101533.63
2022-10-12T08:09:02.337Z,101532.59
2022-10-12T08:10:07.851Z,101534.28
2022-10-12T08:11:09.972Z,101533.19
2022-10-12T08:12:14.329Z,101531.25
2022-10-12T08:13:16.105Z,101538.03
2022-10-12T08:14:20.621Z,101537.78
2022-10-12T08:15:26.874Z,101544.59
2022-10-12T08:16:31.242Z,101539.84
2022-10-12T08:17:33.028Z,101543.16
2022-10-12T08:18:37.520Z,101545.56
2022-10-12T08:19:41.945Z,101546.13
2022-10-12T08:20:43.801Z,101552.13
2022-10-12T08:21:48.184Z,101542.91
2022-10-12T08:22:49.994Z,101539.97
2022-10-12T08:23:54.401Z,101545.00
2022-10-12T08:24:56.180Z,101551.06
2022-10-12T08:26:00.843Z,101551.69
2022-10-12T08:27:02.706Z,101550.63
2022-10-12T08:28:07.579Z,101551.28
2022-10-12T08:29:09.773Z,101546.72
2022-10-12T08:30:14.483Z,101562.53
2022-10-12T08:31:17.633Z,101556.09
2022-10-12T08:32:22.028Z,101556.81
2022-10-12T08:33:23.782Z,101560.13
2022-10-12T08:34:28.988Z,101558.94
2022-10-12T08:35:30.803Z,101563.09
2022-10-12T08:36:35.309Z,101565.56
2022-10-12T08:37:40.016Z,101566.97
2022-10-12T08:38:43.888Z,101560.53
2022-10-12T08:39:48.322Z,101571.84
2022-10-12T08:40:52.861Z,101574.44
2022-10-12T08:42:00.050Z,101573.50
2022-10-12T08:43:16.704Z,101577.03
2022-10-12T08:44:39.966Z,101559.44
2022-10-12T08:45:50.781Z,101571.19
2022-10-12T08:46:56.124Z,101581.53
2022-10-12T08:48:01.709Z,101578.38
2022-10-12T08:49:26.294Z,101579.88
2022-10-12T08:50:35.923Z,101586.38
2022-10-12T08:51:40.729Z,101586.75
2022-10-12T08:52:52.350Z,101588.16
2022-10-12T08:54:09.796Z,101589.72
2022-10-12T08:55:23.773Z,101593.19
2022-10-12T08:56:28.285Z,101597.41
2022-10-12T08:57:30.113Z,101605.47
2022-10-12T08:58:35.237Z,101600.09
2022-10-12T08:59:37.047Z,101603.63
2022-10-12T09:00:41.441Z,101602.69
2022-10-12T09:01:43.259Z,101602.63
2022-10-12T09:02:53.696Z,101602.69
2022-10-12T09:04:13.776Z,101606.31
2022-10-12T09:05:17.084Z,101604.50
2022-10-12T09:06:25.828Z,101607.03
2022-10-12T09:07:31.790Z,101602.47
2022-10-12T09:08:59.502Z,101605.00
2022-10-12T09:10:11.101Z,101601.38
2022-10-12T09:11:24.466Z,101597.56
2022-10-12T09:12:26.297Z,101600.88
2022-10-12T09:13:49.575Z,101598.78
2022-10-12T09:14:54.857Z,101595.00
2022-10-12T09:15:59.742Z,101603.47
2022-10-12T09:17:05.757Z,101597.94
2022-10-12T09:18:17.037Z,101600.31
2022-10-12T09:19:20.400Z,101596.47
2022-10-12T09:20:33.143Z,101601.69
2022-10-12T09:21:37.551Z,101605.06
2022-10-12T09:22:39.597Z,101591.56
2022-10-12T09:23:44.939Z,101594.03
2022-10-12T09:24:50.998Z,101599.25
2022-10-12T09:25:56.657Z,101586.44
2022-10-12T09:27:02.395Z,101596.22
2022-10-12T09:28:21.416Z,101592.41
2022-10-12T09:29:27.762Z,101598.28
2022-10-12T09:30:30.396Z,101585.53
2022-10-12T09:31:53.229Z,101596.09
2022-10-12T09:33:12.579Z,101591.34
2022-10-12T09:34:19.343Z,101594.81
2022-10-12T09:35:24.034Z,101594.44
2022-10-12T09:36:29.600Z,101602.25
2022-10-12T09:37:32.223Z,101596.59
2022-10-12T09:38:36.585Z,101595.28
2022-10-12T09:39:38.680Z,101594.91
2022-10-12T09:40:43.165Z,101594.66
2022-10-12T09:41:48.113Z,101598.72
2022-10-12T09:42:50.013Z,101603.66
2022-10-12T09:43:55.418Z,101595.19
2022-10-12T09:45:20.125Z,101602.13
2022-10-12T09:46:27.201Z,101601.75
2022-10-12T09:47:33.153Z,101605.91
2022-10-12T09:48:34.921Z,101601.22
2022-10-12T09:49:46.155Z,101601.00
2022-10-12T09:50:54.414Z,101603.31
2022-10-12T09:51:59.682Z,101604.00
2022-10-12T09:53:04.135Z,101605.84
2022-10-12T09:54:08.591Z,101604.66
2022-10-12T09:55:13.502Z,101600.94
2022-10-12T09:56:30.378Z,101602.66
2022-10-12T09:57:42.893Z,101601.78
2022-10-12T09:58:54.162Z,101598.16
2022-10-12T09:59:58.580Z,101607.16
2022-10-12T10:01:12.478Z,101605.25
2022-10-12T10:02:21.308Z,101605.25
2022-10-12T10:03:27.884Z,101610.44
2022-10-12T10:04:35.880Z,101616.56
2022-10-12T10:05:38.453Z,101604.84
2022-10-12T10:06:47.003Z,101606.41
2022-10-12T10:07:48.876Z,101598.06
2022-10-12T10:08:53.316Z,101598.72
2022-10-12T10:10:11.323Z,101606.50
2022-10-12T10:11:16.962Z,101612.56
2022-10-12T10:12:30.577Z,101601.59
2022-10-12T10:13:32.492Z,101599.47
2022-10-12T10:14:36.953Z,101598.81
2022-10-12T10:15:41.531Z,101602.94
2022-10-12T10:16:52.093Z,101605.44
2022-10-12T10:17:55.278Z,101605.22
2022-10-12T10:19:00.404Z,101609.09
2022-10-12T10:20:03.129Z,101611.28
2022-10-12T10:21:09.376Z,101602.06
2022-10-12T10:22:11.785Z,101606.41
2022-10-12T10:23:24.879Z,101597.28
2022-10-12T10:24:30.467Z,101593.91
2022-10-12T10:25:35.290Z,101591.59
2022-10-12T10:26:59.748Z,101601.19
2022-10-12T10:28:42.815Z,101594.44
2022-10-12T10:29:45.515Z,101599.84
2022-10-12T10:31:21.698Z,101597.75
2022-10-12T10:32:26.379Z,101591.00
2022-10-12T10:33:31.033Z,101592.53
2022-10-12T10:34:32.862Z,101595.69
2022-10-12T10:35:37.269Z,101590.97
2022-10-12T10:37:01.953Z,101578.91
2022-10-12T10:38:03.934Z,101589.19
2022-10-12T10:39:08.964Z,101580.94
2022-10-12T10:40:30.033Z,101589.53
2022-10-12T10:41:36.074Z,101587.63
2022-10-12T10:42:37.832Z,101585.88
2022-10-12T10:43:42.307Z,101588.22
2022-10-12T10:44:51.108Z,101574.16
2022-10-12T10:45:56.589Z,101588.38
2022-10-12T10:47:05.020Z,101582.66
2022-10-12T10:48:08.112Z,101580.34
2022-10-12T10:49:15.349Z,101575.59
2022-10-12T10:50:29.878Z,101573.47
2022-10-12T10:51:45.239Z,101565.19
2022-10-12T10:52:51.780Z,101570.91
2022-10-12T10:53:53.557Z,101575.88
2022-10-12T10:55:13.399Z,101569.09
2022-10-12T10:56:23.665Z,101576.97
2022-10-12T10:57:28.094Z,101572.97
2022-10-12T10:58:40.207Z,101576.97
2022-10-12T10:59:43.808Z,101568.31
2022-10-12T11:00:48.813Z,101572.63
2022-10-12T11:01:57.708Z,101571.13
2022-10-12T11:03:01.878Z,101570.72
2022-10-12T11:04:07.781Z,101570.63
2022-10-12T11:05:14.483Z,101568.69
2022-10-12T11:06:18.935Z,101571.38
2022-10-12T11:07:26.934Z,101566.59
2022-10-12T11:08:32.016Z,101569.03
2022-10-12T11:09:36.978Z,101566.84
2022-10-12T11:10:44.025Z,101567.41
2022-10-12T11:11:46.514Z,101563.31
2022-10-12T11:12:52.606Z,101557.59
2022-10-12T11:13:59.327Z,101561.72
2022-10-12T11:15:05.116Z,101560.19
2022-10-12T11:16:09.671Z,101560.28
2022-10-12T11:17:16.093Z,101555.81
2022-10-12T11:18:23.860Z,101566.41
2022-10-12T11:19:32.198Z,101563.81
2022-10-12T11:20:41.017Z,101566.16
2022-10-12T11:21:43.792Z,101562.06
2022-10-12T11:22:52.103Z,101551.78
2022-10-12T11:23:57.929Z,101554.56
2022-10-12T11:25:09.090Z,101554.44
2022-10-12T11:26:18.760Z,101554.78
2022-10-12T11:27:24.892Z,101554.63
2022-10-12T11:28:27.697Z,101556.13
2022-10-12T11:29:32.157Z,101548.94
2022-10-12T11:30:38.598Z,101555.00
2022-10-12T11:31:45.723Z,101556.53
2022-10-12T11:32:50.254Z,101550.41
2022-10-12T11:33:54.851Z,101552.16
2022-10-12T11:34:58.594Z,101554.75
2022-10-12T11:36:03.001Z,101545.53
2022-10-12T11:37:19.171Z,101552.16
2022-10-12T11:38:26.957Z,101554.75
2022-10-12T11:39:38.477Z,101548.75
2022-10-12T11:42:21.325Z,101546.00
2022-10-12T11:43:27.233Z,101544.50
2022-10-12T11:44:30.634Z,101538.88
2022-10-12T11:45:40.097Z,101537.91
2022-10-12T11:46:44.674Z,101544.63
2022-10-12T11:47:49.366Z,101540.63
2022-10-12T11:48:53.064Z,101531.03
2022-10-12T11:50:01.925Z,101545.03
2022-10-12T11:51:06.425Z,101548.25
2022-10-12T11:52:14.113Z,101538.00
2022-10-12T11:53:19.498Z,101547.22
2022-10-12T11:54:29.341Z,101533.03
2022-10-12T11:55:54.809Z,101541.47
2022-10-12T11:56:59.937Z,101539.66
2022-10-12T11:58:07.452Z,101538.13
2022-10-12T11:59:17.961Z,101537.56
2022-10-12T12:00:24.063Z,101533.81
2022-10-12T12:01:29.706Z,101540.84
2022-10-12T12:02:35.600Z,101537.44
2022-10-12T12:03:43.276Z,101537.22
2022-10-12T12:04:48.471Z,101544.06
2022-10-12T12:05:50.410Z,101536.28
2022-10-12T12:06:54.827Z,101528.66
2022-10-12T12:07:59.425Z,101539.56
2022-10-12T12:09:01.179Z,101541.72
2022-10-12T12:10:25.613Z,101539.97
2022-10-12T12:11:31.264Z,101536.56
2022-10-12T12:12:35.613Z,101528.91
2022-10-12T12:13:37.380Z,101541.19
2022-10-12T12:14:49.514Z,101537.53
2022-10-12T12:15:53.865Z,101544.41
2022-10-12T12:17:18.067Z,101532.53
2022-10-12T12:18:26.193Z,101530.59
2022-10-12T12:19:41.525Z,101534.28
2022-10-12T12:20:46.827Z,101528.97
2022-10-12T12:22:09.962Z,101534.38
2022-10-12T12:23:24.085Z,101535.78
2022-10-12T12:24:25.924Z,101538.56
2022-10-12T12:25:30.244Z,101531.41
2022-10-12T12:26:32.034Z,101533.72
2022-10-12T12:27:36.513Z,101533.25
2022-10-12T12:28:45.207Z,101525.59
2022-10-12T12:29:50.698Z,101535.13
2022-10-12T12:30:59.256Z,101533.09
2022-10-12T12:32:01.100Z,101522.53